Time;durP1;ratioP1;P1;durP2;ratioP2;P2;SDS_P1;SDS_P2;PMS_P1;PMS_P2;Temp;Humidity;BMP_temperature;BMP_pressure;BME280_temperature;BME280_humidity;BME280_pressure;Samples;Min_cycle;Max_cycle;Signal;HPM_P1;HPM_P2
2023/11/27 00:01:14;;;;;;;1.30;0.70;;;;;;;;;;5038783;28;20456;-66
2023/11/27 00:03:43;;;;;;;1.42;0.60;;;;;;;;;;5040877;28;20048;-63
2023/11/27 00:06:08;;;;;;;0.90;0.57;;;;;;;;;;5043383;28;20033;-64
2023/11/27 00:08:37;;;;;;;2.03;0.70;;;;;;;;;;5043151;28;20033;-64
2023/11/27 00:11:02;;;;;;;0.85;0.52;;;;;;;;;;5040266;28;20095;-62
2023/11/27 00:13:30;;;;;;;1.20;0.70;;;;;;;;;;5041400;28;20483;-67
2023/11/27 00:15:56;;;;;;;0.85;0.47;;;;;;;;;;5041760;28;20118;-64
2023/11/27 00:18:21;;;;;;;1.00;0.60;;;;;;;;;;5041267;28;20881;-65
2023/11/27 00:20:46;;;;;;;1.05;0.60;;;;;;;;;;5037082;28;20489;-65
2023/11/27 00:23:12;;;;;;;0.90;0.60;;;;;;;;;;5041107;28;20056;-64
2023/11/27 00:25:41;;;;;;;1.40;0.70;;;;;;;;;;5042174;28;20044;-69
2023/11/27 00:28:06;;;;;;;1.15;0.70;;;;;;;;;;5038798;28;20118;-65
2023/11/27 00:30:36;;;;;;;1.00;0.55;;;;;;;;;;5041807;28;20470;-65
2023/11/27 00:33:07;;;;;;;1.15;0.68;;;;;;;;;;5041638;28;20107;-61
2023/11/27 00:35:32;;;;;;;1.17;0.68;;;;;;;;;;5037415;28;20053;-65
2023/11/27 00:37:57;;;;;;;2.13;0.73;;;;;;;;;;5041290;28;20029;-66
2023/11/27 00:40:23;;;;;;;1.02;0.60;;;;;;;;;;5038173;28;20041;-63
2023/11/27 00:42:51;;;;;;;1.63;0.60;;;;;;;;;;5042023;28;20036;-64
2023/11/27 00:45:16;;;;;;;1.02;0.60;;;;;;;;;;5037518;28;20066;-64
2023/11/27 00:47:41;;;;;;;1.17;0.63;;;;;;;;;;5041498;28;20403;-63
2023/11/27 00:50:07;;;;;;;0.80;0.50;;;;;;;;;;5026316;28;20021;-65
2023/11/27 00:52:33;;;;;;;1.38;0.70;;;;;;;;;;5040786;28;20017;-65
2023/11/27 00:54:58;;;;;;;0.73;0.50;;;;;;;;;;5040519;28;20040;-64
2023/11/27 00:57:23;;;;;;;0.90;0.50;;;;;;;;;;5041964;28;20056;-66
2023/11/27 00:59:48;;;;;;;2.28;0.52;;;;;;;;;;5037280;28;20528;-64
2023/11/27 01:02:14;;;;;;;0.90;0.50;;;;;;;;;;5037264;28;20027;-65
2023/11/27 01:04:39;;;;;;;0.65;0.40;;;;;;;;;;5040347;28;20087;-64
2023/11/27 01:07:04;;;;;;;0.90;0.50;;;;;;;;;;5041622;28;20428;-65
2023/11/27 01:09:34;;;;;;;1.17;0.60;;;;;;;;;;5042546;28;20032;-66
2023/11/27 01:11:59;;;;;;;1.15;0.50;;;;;;;;;;5038996;28;20079;-64
2023/11/27 01:14:27;;;;;;;1.30;0.60;;;;;;;;;;5039960;28;20021;-63
2023/11/27 01:16:52;;;;;;;1.60;0.55;;;;;;;;;;5042430;28;20116;-64
2023/11/27 01:19:18;;;;;;;1.25;0.60;;;;;;;;;;5036660;28;20049;-66
2023/11/27 01:21:43;;;;;;;1.10;0.57;;;;;;;;;;5042120;28;20031;-65
2023/11/27 01:24:08;;;;;;;0.82;0.50;;;;;;;;;;5040000;28;20056;-64
2023/11/27 01:26:33;;;;;;;0.52;0.50;;;;;;;;;;5041235;28;20013;-65
2023/11/27 01:29:00;;;;;;;1.55;0.60;;;;;;;;;;5041051;28;20420;-62
2023/11/27 01:31:25;;;;;;;0.95;0.50;;;;;;;;;;5036843;28;20538;-65
2023/11/27 01:33:54;;;;;;;1.13;0.57;;;;;;;;;;5041249;28;20040;-63
2023/11/27 01:36:19;;;;;;;0.60;0.40;;;;;;;;;;5041255;28;20064;-64
2023/11/27 01:38:45;;;;;;;1.00;0.60;;;;;;;;;;5042877;28;20025;-65
2023/11/27 01:41:10;;;;;;;0.45;0.32;;;;;;;;;;5044033;28;20516;-65
2023/11/27 01:43:35;;;;;;;1.05;0.50;;;;;;;;;;5042139;28;20065;-65
2023/11/27 01:46:13;;;;;;;1.70;0.68;;;;;;;;;;5043760;28;20126;-66
2023/11/27 01:48:39;;;;;;;0.80;0.50;;;;;;;;;;5043512;28;20056;-63
2023/11/27 01:51:08;;;;;;;0.90;0.55;;;;;;;;;;5043695;28;20110;-64
2023/11/27 01:53:33;;;;;;;0.98;0.50;;;;;;;;;;5042413;28;20120;-63
2023/11/27 01:55:58;;;;;;;0.88;0.40;;;;;;;;;;5042583;28;20037;-65
2023/11/27 01:58:24;;;;;;;1.30;0.70;;;;;;;;;;5043566;28;20043;-63
2023/11/27 02:00:49;;;;;;;0.90;0.57;;;;;;;;;;5040428;28;20084;-63
2023/11/27 02:03:14;;;;;;;1.17;0.52;;;;;;;;;;5040902;28;20453;-63
2023/11/27 02:05:40;;;;;;;0.90;0.60;;;;;;;;;;5042251;28;20048;-64
2023/11/27 02:08:07;;;;;;;0.88;0.47;;;;;;;;;;5043469;28;20048;-62
2023/11/27 02:10:33;;;;;;;1.08;0.50;;;;;;;;;;5043399;28;20057;-63
2023/11/27 02:12:58;;;;;;;0.93;0.60;;;;;;;;;;5039118;28;20063;-64
2023/11/27 02:15:23;;;;;;;1.00;0.57;;;;;;;;;;5042917;28;20049;-64
2023/11/27 02:17:49;;;;;;;0.80;0.63;;;;;;;;;;5044102;28;20033;-62
2023/11/27 02:20:14;;;;;;;0.82;0.50;;;;;;;;;;5037228;28;20799;-64
2023/11/27 02:22:39;;;;;;;1.20;0.50;;;;;;;;;;5042468;28;20067;-64
2023/11/27 02:25:05;;;;;;;0.63;0.40;;;;;;;;;;5042005;28;20045;-65
2023/11/27 02:27:36;;;;;;;1.52;0.70;;;;;;;;;;5043776;28;20029;-65
2023/11/27 02:30:01;;;;;;;0.70;0.30;;;;;;;;;;5042729;28;20029;-64
2023/11/27 02:32:28;;;;;;;0.75;0.50;;;;;;;;;;5043389;28;20047;-64
2023/11/27 02:34:53;;;;;;;0.73;0.45;;;;;;;;;;5043295;28;20060;-65
2023/11/27 02:37:24;;;;;;;1.27;0.50;;;;;;;;;;5040947;28;20560;-65
2023/11/27 02:39:53;;;;;;;0.80;0.38;;;;;;;;;;5043223;28;20037;-65
2023/11/27 02:42:22;;;;;;;1.17;0.40;;;;;;;;;;5044166;28;20033;-65
2023/11/27 02:44:47;;;;;;;0.70;0.38;;;;;;;;;;5041958;28;20038;-63
2023/11/27 02:47:12;;;;;;;0.80;0.50;;;;;;;;;;5037818;28;20041;-64
2023/11/27 02:49:38;;;;;;;1.05;0.50;;;;;;;;;;5041567;28;20067;-65
2023/11/27 02:52:04;;;;;;;0.95;0.40;;;;;;;;;;5041352;28;20081;-64
2023/11/27 02:54:32;;;;;;;0.60;0.40;;;;;;;;;;5040788;28;20040;-63
2023/11/27 02:56:57;;;;;;;0.77;0.40;;;;;;;;;;5040758;28;20048;-63
2023/11/27 02:59:23;;;;;;;0.98;0.50;;;;;;;;;;5041030;28;20351;-65
2023/11/27 03:01:52;;;;;;;0.82;0.40;;;;;;;;;;5038545;28;20045;-65
2023/11/27 03:04:20;;;;;;;0.65;0.50;;;;;;;;;;5040959;28;20037;-65
2023/11/27 03:06:46;;;;;;;0.63;0.40;;;;;;;;;;5042742;28;20048;-65
2023/11/27 03:09:16;;;;;;;0.50;0.40;;;;;;;;;;5042685;28;20037;-64
2023/11/27 03:11:45;;;;;;;0.82;0.50;;;;;;;;;;5041929;28;20418;-65
2023/11/27 03:14:10;;;;;;;0.85;0.47;;;;;;;;;;5040989;28;20148;-64
2023/11/27 03:16:35;;;;;;;0.45;0.40;;;;;;;;;;5033027;28;20053;-63
2023/11/27 03:19:01;;;;;;;0.63;0.38;;;;;;;;;;5033458;28;20041;-64
2023/11/27 03:21:26;;;;;;;0.82;0.30;;;;;;;;;;5040031;28;20037;-63
2023/11/27 03:23:51;;;;;;;0.70;0.40;;;;;;;;;;5040514;28;20085;-63
2023/11/27 03:26:17;;;;;;;0.82;0.50;;;;;;;;;;5042215;28;20061;-64
2023/11/27 03:28:43;;;;;;;0.60;0.35;;;;;;;;;;5041400;28;20091;-64
2023/11/27 03:31:11;;;;;;;1.63;0.50;;;;;;;;;;5040572;28;20045;-65
2023/11/27 03:33:37;;;;;;;0.63;0.30;;;;;;;;;;5039939;28;20570;-64
2023/11/27 03:36:02;;;;;;;0.80;0.50;;;;;;;;;;5041752;28;20139;-63
2023/11/27 03:38:32;;;;;;;0.60;0.32;;;;;;;;;;5037228;28;20084;-65
2023/11/27 03:40:57;;;;;;;0.95;0.38;;;;;;;;;;5042244;28;20099;-65
2023/11/27 03:43:23;;;;;;;1.00;0.40;;;;;;;;;;5034576;28;20040;-64
2023/11/27 03:45:49;;;;;;;0.90;0.40;;;;;;;;;;5042109;28;20041;-64
2023/11/27 03:48:18;;;;;;;0.63;0.30;;;;;;;;;;5042841;28;20060;-63
2023/11/27 03:50:43;;;;;;;0.70;0.30;;;;;;;;;;5042527;28;20060;-64
2023/11/27 03:53:08;;;;;;;1.13;0.50;;;;;;;;;;5041846;28;20423;-65
2023/11/27 03:55:34;;;;;;;0.70;0.40;;;;;;;;;;5041236;28;20052;-64
2023/11/27 03:58:02;;;;;;;0.90;0.50;;;;;;;;;;5039947;28;20097;-64
2023/11/27 04:00:28;;;;;;;0.50;0.30;;;;;;;;;;5036673;28;20048;-64
2023/11/27 04:02:53;;;;;;;0.95;0.40;;;;;;;;;;5028382;28;20045;-64
2023/11/27 04:05:19;;;;;;;0.90;0.50;;;;;;;;;;5041554;28;20029;-63
2023/11/27 04:07:47;;;;;;;0.50;0.30;;;;;;;;;;5038160;28;20044;-65
2023/11/27 04:10:18;;;;;;;0.40;0.30;;;;;;;;;;5041867;28;20113;-64
2023/11/27 04:12:43;;;;;;;0.57;0.40;;;;;;;;;;5041274;28;20801;-65
2023/11/27 04:15:09;;;;;;;0.50;0.40;;;;;;;;;;5038209;28;20060;-64
2023/11/27 04:17:34;;;;;;;0.50;0.35;;;;;;;;;;5039943;28;20051;-64
2023/11/27 04:20:05;;;;;;;0.80;0.60;;;;;;;;;;5029655;28;20407;-63
2023/11/27 04:22:30;;;;;;;0.30;0.30;;;;;;;;;;5040084;28;20061;-64
2023/11/27 04:24:56;;;;;;;0.52;0.40;;;;;;;;;;5042012;28;20074;-64
2023/11/27 04:27:22;;;;;;;0.77;0.32;;;;;;;;;;5033036;28;20155;-64
2023/11/27 04:29:48;;;;;;;0.60;0.40;;;;;;;;;;5042109;28;20044;-64
2023/11/27 04:32:13;;;;;;;1.10;0.40;;;;;;;;;;5040355;28;20060;-65
2023/11/27 04:34:38;;;;;;;0.75;0.40;;;;;;;;;;5031774;28;20549;-62
2023/11/27 04:37:05;;;;;;;0.65;0.40;;;;;;;;;;5014741;28;20691;-62
2023/11/27 04:39:31;;;;;;;0.80;0.40;;;;;;;;;;5020887;28;20514;-62
2023/11/27 04:41:57;;;;;;;1.08;0.30;;;;;;;;;;5011534;28;20613;-61
2023/11/27 04:44:23;;;;;;;0.93;0.40;;;;;;;;;;5017803;28;20069;-62
2023/11/27 04:46:49;;;;;;;0.77;0.43;;;;;;;;;;5015520;28;20492;-62
2023/11/27 04:49:14;;;;;;;1.33;0.40;;;;;;;;;;5012830;28;20037;-61
2023/11/27 04:51:40;;;;;;;2.05;0.30;;;;;;;;;;5015567;28;20033;-62
2023/11/27 04:54:05;;;;;;;0.88;0.40;;;;;;;;;;5016238;28;20041;-60
2023/11/27 04:56:31;;;;;;;1.00;0.40;;;;;;;;;;5010462;28;20049;-62
2023/11/27 04:58:56;;;;;;;0.55;0.32;;;;;;;;;;5009083;28;20029;-61
2023/11/27 05:01:25;;;;;;;0.98;0.40;;;;;;;;;;5026908;28;20102;-61
2023/11/27 05:03:50;;;;;;;0.50;0.30;;;;;;;;;;5011947;28;20042;-62
2023/11/27 05:06:15;;;;;;;0.52;0.28;;;;;;;;;;5013227;28;20073;-61
2023/11/27 05:08:47;;;;;;;0.85;0.40;;;;;;;;;;5007960;28;20049;-62
2023/11/27 05:11:21;;;;;;;0.73;0.30;;;;;;;;;;5010241;28;20024;-63
2023/11/27 05:13:48;;;;;;;0.50;0.30;;;;;;;;;;4997597;28;20090;-63
2023/11/27 05:16:14;;;;;;;0.95;0.35;;;;;;;;;;5014198;28;20041;-62
2023/11/27 05:18:43;;;;;;;0.40;0.30;;;;;;;;;;5011147;28;20059;-61
2023/11/27 05:21:17;;;;;;;1.00;0.20;;;;;;;;;;5008603;28;20487;-61
2023/11/27 05:23:45;;;;;;;0.60;0.35;;;;;;;;;;5011194;28;20036;-61
2023/11/27 05:26:11;;;;;;;0.50;0.50;;;;;;;;;;5012392;28;20037;-61
2023/11/27 05:28:38;;;;;;;0.93;0.30;;;;;;;;;;5017368;28;20088;-61
2023/11/27 05:31:05;;;;;;;0.88;0.40;;;;;;;;;;5014288;28;20124;-62
2023/11/27 05:33:31;;;;;;;0.80;0.40;;;;;;;;;;5008994;28;20041;-62
2023/11/27 05:35:57;;;;;;;0.70;0.30;;;;;;;;;;5011457;28;20144;-62
2023/11/27 05:38:22;;;;;;;0.50;0.30;;;;;;;;;;5008463;28;20052;-61
2023/11/27 05:40:48;;;;;;;1.30;0.30;;;;;;;;;;5009759;28;20731;-61
2023/11/27 05:43:13;;;;;;;0.38;0.30;;;;;;;;;;5008934;28;20045;-62
2023/11/27 05:45:41;;;;;;;1.60;0.32;;;;;;;;;;5021372;28;20085;-61
2023/11/27 05:48:08;;;;;;;0.47;0.28;;;;;;;;;;5021298;28;20421;-62
2023/11/27 05:50:41;;;;;;;0.60;0.30;;;;;;;;;;5005786;28;20041;-62
2023/11/27 05:53:08;;;;;;;0.98;0.40;;;;;;;;;;5021440;28;20507;-61
2023/11/27 05:55:33;;;;;;;1.00;0.35;;;;;;;;;;5010563;28;20042;-61
2023/11/27 05:57:59;;;;;;;2.60;0.60;;;;;;;;;;5000272;28;20116;-60
2023/11/27 06:00:24;;;;;;;1.45;0.30;;;;;;;;;;5023464;28;20491;-60
2023/11/27 06:02:52;;;;;;;1.00;0.40;;;;;;;;;;5028999;28;20418;-60
2023/11/27 06:05:18;;;;;;;1.85;0.55;;;;;;;;;;5021738;28;20059;-62
2023/11/27 06:07:45;;;;;;;0.47;0.20;;;;;;;;;;5009371;28;20148;-60
2023/11/27 06:10:11;;;;;;;0.45;0.22;;;;;;;;;;4997789;28;20107;-62
2023/11/27 06:12:36;;;;;;;0.85;0.30;;;;;;;;;;5011101;28;20045;-63
2023/11/27 06:15:06;;;;;;;0.40;0.30;;;;;;;;;;5015640;28;20052;-60
2023/11/27 06:17:31;;;;;;;0.38;0.20;;;;;;;;;;5018730;28;20029;-60
2023/11/27 06:19:57;;;;;;;0.60;0.30;;;;;;;;;;5012981;28;20391;-61
2023/11/27 06:22:23;;;;;;;0.30;0.30;;;;;;;;;;5015398;28;20166;-61
2023/11/27 06:24:50;;;;;;;0.50;0.30;;;;;;;;;;5015419;28;20147;-62
2023/11/27 06:27:15;;;;;;;0.60;0.30;;;;;;;;;;5013410;28;20913;-60
2023/11/27 06:29:41;;;;;;;0.70;0.40;;;;;;;;;;5017441;28;20072;-62
2023/11/27 06:32:06;;;;;;;1.33;0.43;;;;;;;;;;5036459;28;20715;-61
2023/11/27 06:34:31;;;;;;;0.60;0.30;;;;;;;;;;5020947;28;20080;-61
2023/11/27 06:36:59;;;;;;;0.52;0.20;;;;;;;;;;5014004;28;20059;-62
2023/11/27 06:39:27;;;;;;;0.90;0.35;;;;;;;;;;5022361;28;20045;-61
2023/11/27 06:41:56;;;;;;;0.60;0.30;;;;;;;;;;5014278;28;20037;-62
2023/11/27 06:44:26;;;;;;;0.70;0.40;;;;;;;;;;5012054;28;20137;-61
2023/11/27 06:46:51;;;;;;;0.70;0.30;;;;;;;;;;5015550;28;20037;-60
2023/11/27 06:49:17;;;;;;;1.38;0.50;;;;;;;;;;5013755;28;20052;-57
2023/11/27 06:51:42;;;;;;;2.63;0.57;;;;;;;;;;5014609;28;20040;-60
2023/11/27 06:54:08;;;;;;;3.72;0.40;;;;;;;;;;5017766;28;20045;-62
2023/11/27 06:56:36;;;;;;;2.10;0.40;;;;;;;;;;5013621;28;20080;-57
2023/11/27 06:59:03;;;;;;;2.70;0.50;;;;;;;;;;5020927;28;20037;-59
2023/11/27 07:01:28;;;;;;;1.48;0.30;;;;;;;;;;5016305;28;20048;-60
2023/11/27 07:03:54;;;;;;;6.93;0.77;;;;;;;;;;5014159;28;21101;-59
2023/11/27 07:06:24;;;;;;;4.88;0.70;;;;;;;;;;5018220;28;20041;-58
2023/11/27 07:08:49;;;;;;;7.75;1.13;;;;;;;;;;5011530;28;20516;-58
2023/11/27 07:11:15;;;;;;;4.85;0.75;;;;;;;;;;5012066;28;20038;-60
2023/11/27 07:13:40;;;;;;;7.88;1.48;;;;;;;;;;5019451;28;20514;-58
2023/11/27 07:16:08;;;;;;;4.47;0.77;;;;;;;;;;5014979;28;20785;-60
2023/11/27 07:18:34;;;;;;;11.00;1.08;;;;;;;;;;5019722;28;20080;-59
2023/11/27 07:21:00;;;;;;;6.53;1.10;;;;;;;;;;5018034;28;20057;-60
2023/11/27 07:23:26;;;;;;;3.85;0.90;;;;;;;;;;5018422;28;20066;-58
2023/11/27 07:25:52;;;;;;;9.98;1.52;;;;;;;;;;5010118;28;20037;-58
2023/11/27 07:28:20;;;;;;;7.13;1.10;;;;;;;;;;5030179;28;20048;-58
2023/11/27 07:30:46;;;;;;;4.47;1.10;;;;;;;;;;5012030;28;20040;-60
2023/11/27 07:33:11;;;;;;;8.95;1.00;;;;;;;;;;5016274;28;20029;-59
2023/11/27 07:35:37;;;;;;;8.75;1.02;;;;;;;;;;5020384;28;20056;-60
2023/11/27 07:38:02;;;;;;;5.10;0.98;;;;;;;;;;5026234;28;20044;-61
2023/11/27 07:40:28;;;;;;;6.28;0.70;;;;;;;;;;5003595;28;20144;-63
2023/11/27 07:42:54;;;;;;;8.60;0.93;;;;;;;;;;5020219;28;20127;-58
2023/11/27 07:45:20;;;;;;;7.38;1.08;;;;;;;;;;5022861;28;20131;-59
2023/11/27 07:47:45;;;;;;;6.97;1.60;;;;;;;;;;5018345;28;20038;-59
2023/11/27 07:50:10;;;;;;;8.25;1.50;;;;;;;;;;5007493;28;20044;-59
2023/11/27 07:52:39;;;;;;;9.43;1.17;;;;;;;;;;5015790;28;20040;-59
2023/11/27 07:55:05;;;;;;;10.15;1.25;;;;;;;;;;5010778;28;20467;-58
2023/11/27 07:57:33;;;;;;;9.20;1.60;;;;;;;;;;5015769;28;20044;-58
2023/11/27 08:00:11;;;;;;;12.10;1.40;;;;;;;;;;5018824;28;20086;-58
2023/11/27 08:02:38;;;;;;;8.95;0.98;;;;;;;;;;5013769;28;20929;-59
2023/11/27 08:05:08;;;;;;;7.25;1.75;;;;;;;;;;5015766;28;20037;-58
2023/11/27 08:07:34;;;;;;;6.80;1.50;;;;;;;;;;5015147;28;20349;-59
2023/11/27 08:10:01;;;;;;;9.23;1.60;;;;;;;;;;5019262;28;20032;-59
2023/11/27 08:12:26;;;;;;;6.88;1.67;;;;;;;;;;5017735;28;20111;-58
2023/11/27 08:14:56;;;;;;;10.90;1.70;;;;;;;;;;5016181;28;20116;-58
2023/11/27 08:17:21;;;;;;;11.40;1.95;;;;;;;;;;5014570;28;20013;-58
2023/11/27 08:19:47;;;;;;;8.68;1.92;;;;;;;;;;5020452;28;20084;-58
2023/11/27 08:22:12;;;;;;;6.57;1.65;;;;;;;;;;5015500;28;20072;-59
2023/11/27 08:24:41;;;;;;;9.55;1.92;;;;;;;;;;5014964;28;20033;-57
2023/11/27 08:27:06;;;;;;;6.25;1.45;;;;;;;;;;5011744;28;20112;-58
2023/11/27 08:29:32;;;;;;;12.57;1.90;;;;;;;;;;5005983;28;22845;-58
2023/11/27 08:31:58;;;;;;;9.73;2.17;;;;;;;;;;5012614;28;20017;-58
2023/11/27 08:34:23;;;;;;;8.57;2.00;;;;;;;;;;5023122;28;20063;-58
2023/11/27 08:36:49;;;;;;;10.65;1.80;;;;;;;;;;5012630;28;20585;-58
2023/11/27 08:39:14;;;;;;;7.70;1.92;;;;;;;;;;5015127;28;21630;-57
2023/11/27 08:41:39;;;;;;;8.75;1.80;;;;;;;;;;5009096;28;20037;-58
2023/11/27 08:44:08;;;;;;;11.80;2.10;;;;;;;;;;5017012;28;20085;-59
2023/11/27 08:46:34;;;;;;;7.72;1.70;;;;;;;;;;5025481;28;20427;-57
2023/11/27 08:48:59;;;;;;;6.60;1.80;;;;;;;;;;5026002;28;20041;-58
2023/11/27 08:51:25;;;;;;;6.88;1.63;;;;;;;;;;5015222;28;20124;-58
2023/11/27 08:53:52;;;;;;;11.18;2.13;;;;;;;;;;5016722;28;20532;-62
2023/11/27 08:56:18;;;;;;;10.57;1.60;;;;;;;;;;5015329;28;20059;-58
2023/11/27 08:58:49;;;;;;;10.25;2.10;;;;;;;;;;5017855;28;20033;-58
2023/11/27 09:01:16;;;;;;;11.85;2.00;;;;;;;;;;5016253;28;20032;-58
2023/11/27 09:03:45;;;;;;;7.93;1.98;;;;;;;;;;5013590;28;20440;-57
2023/11/27 09:06:19;;;;;;;7.13;1.70;;;;;;;;;;5014844;28;20073;-58
2023/11/27 09:08:44;;;;;;;5.43;1.38;;;;;;;;;;5014963;28;20141;-59
2023/11/27 09:11:11;;;;;;;9.00;1.95;;;;;;;;;;5012016;28;20072;-58
2023/11/27 09:13:37;;;;;;;5.82;1.35;;;;;;;;;;5014071;28;20021;-59
2023/11/27 09:16:04;;;;;;;7.72;1.80;;;;;;;;;;5015548;28;20053;-58
2023/11/27 09:18:31;;;;;;;9.48;1.58;;;;;;;;;;5015917;28;20045;-60
2023/11/27 09:20:56;;;;;;;7.00;1.70;;;;;;;;;;5018046;28;20091;-58
2023/11/27 09:23:25;;;;;;;5.55;1.40;;;;;;;;;;5025630;28;21202;-59
2023/11/27 09:25:50;;;;;;;5.80;1.73;;;;;;;;;;5022245;28;20651;-59
2023/11/27 09:28:19;;;;;;;7.57;1.38;;;;;;;;;;5017866;28;20454;-58
2023/11/27 09:30:45;;;;;;;5.07;1.45;;;;;;;;;;5028921;28;20560;-59
2023/11/27 09:33:13;;;;;;;5.60;1.13;;;;;;;;;;5016616;28;20090;-58
2023/11/27 09:35:39;;;;;;;9.48;1.60;;;;;;;;;;5015051;28;20073;-57
2023/11/27 09:38:07;;;;;;;7.43;1.27;;;;;;;;;;5021113;28;20072;-59
2023/11/27 09:40:33;;;;;;;5.10;1.25;;;;;;;;;;5013970;28;20802;-58
2023/11/27 09:42:58;;;;;;;4.90;1.25;;;;;;;;;;5023321;28;20124;-58
2023/11/27 09:45:24;;;;;;;5.82;1.35;;;;;;;;;;5011627;28;21254;-58
2023/11/27 09:47:49;;;;;;;7.60;1.48;;;;;;;;;;5019318;28;20038;-58
2023/11/27 09:50:16;;;;;;;4.25;1.08;;;;;;;;;;5018110;28;20068;-57
2023/11/27 09:52:48;;;;;;;6.25;1.10;;;;;;;;;;5019608;28;20128;-58
2023/11/27 09:55:14;;;;;;;5.78;1.00;;;;;;;;;;5018892;28;20056;-58
2023/11/27 09:57:39;;;;;;;5.43;1.40;;;;;;;;;;5019953;28;20034;-57
2023/11/27 10:00:07;;;;;;;4.28;1.13;;;;;;;;;;5024546;28;20042;-57
2023/11/27 10:02:33;;;;;;;3.85;0.90;;;;;;;;;;5026949;28;20055;-59
2023/11/27 10:04:58;;;;;;;3.28;1.02;;;;;;;;;;5025632;28;20475;-58
2023/11/27 10:07:24;;;;;;;5.97;1.08;;;;;;;;;;5023887;28;20078;-58
2023/11/27 10:09:51;;;;;;;4.40;0.80;;;;;;;;;;5017163;28;20582;-58
2023/11/27 10:12:28;;;;;;;5.22;1.15;;;;;;;;;;5020488;28;20039;-58
2023/11/27 10:14:54;;;;;;;5.47;1.00;;;;;;;;;;5020440;28;20056;-58
2023/11/27 10:17:20;;;;;;;3.80;0.95;;;;;;;;;;5019399;28;20114;-58
2023/11/27 10:19:52;;;;;;;4.57;0.95;;;;;;;;;;5014950;28;22678;-57
2023/11/27 10:22:21;;;;;;;1.90;0.82;;;;;;;;;;5023144;28;20772;-67
2023/11/27 10:24:49;;;;;;;4.22;0.93;;;;;;;;;;5037058;28;20147;-59
2023/11/27 10:27:15;;;;;;;3.40;0.93;;;;;;;;;;5043030;28;20596;-58
2023/11/27 10:29:40;;;;;;;3.13;0.80;;;;;;;;;;5042020;28;20071;-59
2023/11/27 10:32:07;;;;;;;5.30;0.93;;;;;;;;;;5040624;28;20064;-59
2023/11/27 10:34:32;;;;;;;2.15;0.90;;;;;;;;;;5041769;28;20123;-59
2023/11/27 10:37:00;;;;;;;2.20;0.60;;;;;;;;;;5043076;28;20645;-57
2023/11/27 10:39:32;;;;;;;2.47;0.73;;;;;;;;;;5042371;28;20029;-57
2023/11/27 10:42:00;;;;;;;2.25;0.80;;;;;;;;;;5043760;28;20036;-57
2023/11/27 10:44:25;;;;;;;3.20;0.90;;;;;;;;;;5041070;28;20044;-58
2023/11/27 10:46:51;;;;;;;4.13;0.80;;;;;;;;;;5042704;28;20048;-57
2023/11/27 10:49:17;;;;;;;3.97;0.93;;;;;;;;;;5035525;28;20052;-58
2023/11/27 10:51:44;;;;;;;1.83;0.52;;;;;;;;;;5041950;28;20529;-57
2023/11/27 10:54:14;;;;;;;3.83;0.85;;;;;;;;;;5043347;28;20115;-58
2023/11/27 10:56:39;;;;;;;2.15;0.57;;;;;;;;;;5044529;28;20452;-58
2023/11/27 10:59:09;;;;;;;2.75;0.70;;;;;;;;;;5043194;28;20502;-59
2023/11/27 11:01:40;;;;;;;2.20;0.80;;;;;;;;;;5039807;28;20120;-57
2023/11/27 11:04:24;;;;;;;2.40;0.70;;;;;;;;;;5041694;28;20116;-59
2023/11/27 11:06:51;;;;;;;2.25;0.80;;;;;;;;;;5042912;28;20037;-58
2023/11/27 11:09:16;;;;;;;4.00;0.75;;;;;;;;;;5041484;28;20549;-58
2023/11/27 11:11:48;;;;;;;1.75;0.57;;;;;;;;;;5041399;28;20489;-58
2023/11/27 11:14:15;;;;;;;2.05;0.60;;;;;;;;;;5039179;28;20100;-58
2023/11/27 11:17:05;;;;;;;1.85;0.60;;;;;;;;;;5041886;28;20048;-58
2023/11/27 11:19:51;;;;;;;2.22;0.60;;;;;;;;;;5042900;28;20025;-58
2023/11/27 11:22:34;;;;;;;2.22;0.60;;;;;;;;;;5025037;28;20029;-58
2023/11/27 11:25:00;;;;;;;2.03;0.60;;;;;;;;;;5039486;28;20040;-58
2023/11/27 11:27:57;;;;;;;2.58;0.90;;;;;;;;;;5042389;28;20036;-59
2023/11/27 11:30:25;;;;;;;2.55;0.88;;;;;;;;;;5017087;28;20938;-57
2023/11/27 11:32:52;;;;;;;2.95;0.73;;;;;;;;;;5043104;28;20049;-58
2023/11/27 11:35:18;;;;;;;0.77;0.40;;;;;;;;;;5039792;28;20045;-58
2023/11/27 11:37:47;;;;;;;1.50;0.50;;;;;;;;;;5042863;28;20041;-58
2023/11/27 11:40:22;;;;;;;1.75;0.60;;;;;;;;;;5042800;28;20020;-58
2023/11/27 11:42:47;;;;;;;1.77;0.70;;;;;;;;;;5038287;28;20021;-58
2023/11/27 11:45:21;;;;;;;2.65;0.98;;;;;;;;;;5023286;28;20029;-58
2023/11/27 11:47:58;;;;;;;1.48;0.60;;;;;;;;;;5013319;28;20041;-58
2023/11/27 11:50:28;;;;;;;2.17;0.60;;;;;;;;;;5009956;28;20143;-58
2023/11/27 11:52:54;;;;;;;;;;;;;;;;;;5015692;28;20033;-58
2023/11/27 11:55:25;;;;;;;1.02;0.57;;;;;;;;;;5012541;28;19928;-59
2023/11/27 11:57:53;;;;;;;2.88;0.73;;;;;;;;;;5010948;28;20034;-59
2023/11/27 12:00:23;;;;;;;2.58;0.70;;;;;;;;;;5013641;28;20048;-58
2023/11/27 12:02:50;;;;;;;;;;;;;;;;;;5011283;28;20045;-60
2023/11/27 12:05:16;;;;;;;2.17;0.50;;;;;;;;;;5010410;28;20179;-57
2023/11/27 12:07:41;;;;;;;1.80;0.60;;;;;;;;;;5010562;28;20789;-58
2023/11/27 12:10:06;;;;;;;1.60;0.60;;;;;;;;;;5012095;28;20096;-59
2023/11/27 12:12:33;;;;;;;1.80;0.70;;;;;;;;;;5016646;28;20431;-60
2023/11/27 12:15:00;;;;;;;1.30;0.80;;;;;;;;;;5008884;28;20057;-59
2023/11/27 12:17:34;;;;;;;2.50;0.55;;;;;;;;;;5022244;28;20052;-58
2023/11/27 12:19:59;;;;;;;1.13;0.50;;;;;;;;;;5014270;28;20037;-59
2023/11/27 12:22:26;;;;;;;1.77;0.43;;;;;;;;;;5023247;28;20037;-59
2023/11/27 12:24:55;;;;;;;2.85;0.52;;;;;;;;;;5011296;28;20037;-59
2023/11/27 12:27:25;;;;;;;1.48;0.52;;;;;;;;;;5014920;28;20033;-58
2023/11/27 12:29:50;;;;;;;1.35;0.50;;;;;;;;;;5016234;28;20038;-58
2023/11/27 12:32:15;;;;;;;1.85;0.60;;;;;;;;;;5015542;28;20808;-57
2023/11/27 12:34:41;;;;;;;1.45;0.55;;;;;;;;;;5014772;28;20049;-57
2023/11/27 12:37:09;;;;;;;2.05;0.50;;;;;;;;;;5009029;28;20064;-59
2023/11/27 12:39:37;;;;;;;1.92;0.60;;;;;;;;;;5025562;28;20099;-60
2023/11/27 12:42:12;;;;;;;1.27;0.50;;;;;;;;;;5013549;28;20529;-59
2023/11/27 12:44:37;;;;;;;0.85;0.45;;;;;;;;;;5016695;28;20073;-58
2023/11/27 12:47:02;;;;;;;1.95;0.63;;;;;;;;;;5021509;28;20127;-59
2023/11/27 12:49:33;;;;;;;1.15;0.43;;;;;;;;;;5013460;28;20061;-58
2023/11/27 12:52:10;;;;;;;2.60;0.50;;;;;;;;;;5016153;28;20037;-59
2023/11/27 12:54:36;;;;;;;1.70;0.52;;;;;;;;;;5013111;28;20119;-59
2023/11/27 12:57:06;;;;;;;0.90;0.40;;;;;;;;;;5014316;28;20040;-58
2023/11/27 12:59:31;;;;;;;2.22;0.52;;;;;;;;;;5012047;28;20427;-59
2023/11/27 13:02:00;;;;;;;0.95;0.35;;;;;;;;;;5012358;28;20075;-58
2023/11/27 13:04:35;;;;;;;0.95;0.30;;;;;;;;;;5017062;28;20597;-58
2023/11/27 13:07:12;;;;;;;1.33;0.40;;;;;;;;;;5011013;28;20095;-58
2023/11/27 13:09:59;;;;;;;2.40;0.43;;;;;;;;;;5010898;28;20087;-58
2023/11/27 13:12:27;;;;;;;1.50;0.50;;;;;;;;;;5010711;28;20068;-59
2023/11/27 13:14:53;;;;;;;1.52;0.60;;;;;;;;;;5006836;28;20033;-59
2023/11/27 13:17:23;;;;;;;0.90;0.25;;;;;;;;;;5026630;28;20430;-58
2023/11/27 13:19:49;;;;;;;1.45;0.30;;;;;;;;;;5017861;28;20053;-59
2023/11/27 13:22:15;;;;;;;1.13;0.35;;;;;;;;;;5013756;28;20041;-60
2023/11/27 13:24:50;;;;;;;2.05;0.50;;;;;;;;;;5015088;28;20087;-58
2023/11/27 13:27:23;;;;;;;2.03;0.38;;;;;;;;;;5012998;28;20056;-58
2023/11/27 13:29:50;;;;;;;3.50;0.60;;;;;;;;;;5028058;28;20041;-57
2023/11/27 13:32:16;;;;;;;1.05;0.47;;;;;;;;;;5046006;28;20502;-59
2023/11/27 13:34:55;;;;;;;1.17;0.40;;;;;;;;;;5038975;28;20123;-59
2023/11/27 13:37:40;;;;;;;1.63;0.40;;;;;;;;;;5039154;28;20127;-57
2023/11/27 13:40:11;;;;;;;1.27;0.40;;;;;;;;;;5042892;28;20367;-59
2023/11/27 13:42:39;;;;;;;1.65;0.50;;;;;;;;;;5039942;28;20037;-58
2023/11/27 13:45:14;;;;;;;1.80;0.47;;;;;;;;;;5039576;28;20037;-60
2023/11/27 13:47:39;;;;;;;0.98;0.55;;;;;;;;;;5041301;28;20037;-57
2023/11/27 13:50:07;;;;;;;1.13;0.30;;;;;;;;;;5040928;28;20045;-58
2023/11/27 13:52:33;;;;;;;1.00;0.38;;;;;;;;;;5042385;28;20055;-59
2023/11/27 13:54:59;;;;;;;1.13;0.60;;;;;;;;;;5034802;28;20095;-59
2023/11/27 13:57:28;;;;;;;1.55;0.30;;;;;;;;;;5039556;28;20038;-59
2023/11/27 13:59:59;;;;;;;1.17;0.30;;;;;;;;;;5038889;28;20037;-59
2023/11/27 14:02:27;;;;;;;0.65;0.32;;;;;;;;;;5042701;28;20037;-60
2023/11/27 14:05:05;;;;;;;0.98;0.52;;;;;;;;;;5042501;28;20045;-58
2023/11/27 14:07:34;;;;;;;1.40;0.40;;;;;;;;;;5044272;28;20079;-59
2023/11/27 14:10:04;;;;;;;2.60;0.40;;;;;;;;;;5043560;28;20064;-59
2023/11/27 14:12:43;;;;;;;0.80;0.35;;;;;;;;;;5043642;28;20037;-59
2023/11/27 14:15:21;;;;;;;1.48;0.43;;;;;;;;;;5035353;28;20491;-59
2023/11/27 14:18:27;;;;;;;1.02;0.50;;;;;;;;;;5042125;28;20234;-58
2023/11/27 14:20:46;;;;;;;1.00;0.32;;;;;;;;;;5040996;28;20780;-57
2023/11/27 14:23:36;;;;;;;1.05;0.40;;;;;;;;;;5044018;28;20061;-58
2023/11/27 14:28:32;;;;;;;1.05;0.40;;;;;;;;;;5042531;28;20164;-60
2023/11/27 14:30:57;;;;;;;0.60;0.40;;;;;;;;;;5023142;28;20085;-58
2023/11/27 14:33:23;;;;;;;1.15;0.50;;;;;;;;;;5038112;28;20047;-59
2023/11/27 14:35:48;;;;;;;0.80;0.40;;;;;;;;;;5042016;28;20051;-59
2023/11/27 14:38:15;;;;;;;1.80;0.40;;;;;;;;;;5037337;28;20040;-58
2023/11/27 14:40:41;;;;;;;1.75;0.43;;;;;;;;;;5041632;28;20041;-58
2023/11/27 14:43:06;;;;;;;1.08;0.30;;;;;;;;;;5040925;28;20415;-59
2023/11/27 14:45:42;;;;;;;2.05;0.47;;;;;;;;;;5042156;28;20442;-59
2023/11/27 14:48:12;;;;;;;0.80;0.40;;;;;;;;;;5031087;28;20052;-58